sensor_id;sensor_type;location;lat;lon;timestamp;temperature;humidity
6581;DHT22;3324;50.796;7.228;2022-08-25T00:01:25;22.60;94.80
6581;DHT22;3324;50.796;7.228;2022-08-25T00:03:52;22.50;94.80
6581;DHT22;3324;50.796;7.228;2022-08-25T00:06:18;22.50;94.90
6581;DHT22;3324;50.796;7.228;2022-08-25T00:08:44;22.50;95.20
6581;DHT22;3324;50.796;7.228;2022-08-25T00:11:16;22.50;95.20
6581;DHT22;3324;50.796;7.228;2022-08-25T00:13:45;22.50;95.40
6581;DHT22;3324;50.796;7.228;2022-08-25T00:16:13;22.40;95.40
6581;DHT22;3324;50.796;7.228;2022-08-25T00:18:40;22.40;95.50
6581;DHT22;3324;50.796;7.228;2022-08-25T00:21:06;22.50;95.60
6581;DHT22;3324;50.796;7.228;2022-08-25T00:23:32;22.40;95.80
6581;DHT22;3324;50.796;7.228;2022-08-25T00:25:58;22.40;96.00
6581;DHT22;3324;50.796;7.228;2022-08-25T00:28:24;22.40;96.80
6581;DHT22;3324;50.796;7.228;2022-08-25T00:30:50;22.30;96.60
6581;DHT22;3324;50.796;7.228;2022-08-25T00:33:16;22.30;96.70
6581;DHT22;3324;50.796;7.228;2022-08-25T00:35:43;22.30;96.90
6581;DHT22;3324;50.796;7.228;2022-08-25T00:38:10;22.30;97.00
6581;DHT22;3324;50.796;7.228;2022-08-25T00:40:38;22.20;97.00
6581;DHT22;3324;50.796;7.228;2022-08-25T00:43:04;22.20;97.60
6581;DHT22;3324;50.796;7.228;2022-08-25T00:45:31;22.20;97.70
6581;DHT22;3324;50.796;7.228;2022-08-25T00:47:57;22.20;97.90
6581;DHT22;3324;50.796;7.228;2022-08-25T00:50:23;22.10;98.00
6581;DHT22;3324;50.796;7.228;2022-08-25T00:52:51;22.10;98.40
6581;DHT22;3324;50.796;7.228;2022-08-25T00:55:22;22.10;98.40
6581;DHT22;3324;50.796;7.228;2022-08-25T00:58:17;22.10;98.80
6581;DHT22;3324;50.796;7.228;2022-08-25T01:00:47;22.00;99.00
6581;DHT22;3324;50.796;7.228;2022-08-25T01:03:14;22.00;98.70
6581;DHT22;3324;50.796;7.228;2022-08-25T01:05:40;22.00;99.00
6581;DHT22;3324;50.796;7.228;2022-08-25T01:08:08;21.90;99.20
6581;DHT22;3324;50.796;7.228;2022-08-25T01:10:36;21.90;99.50
6581;DHT22;3324;50.796;7.228;2022-08-25T01:13:10;21.90;99.70
6581;DHT22;3324;50.796;7.228;2022-08-25T01:15:37;21.90;99.90
6581;DHT22;3324;50.796;7.228;2022-08-25T01:18:03;21.80;99.90
6581;DHT22;3324;50.796;7.228;2022-08-25T01:20:31;21.80;99.90
6581;DHT22;3324;50.796;7.228;2022-08-25T01:22:57;21.80;99.90
6581;DHT22;3324;50.796;7.228;2022-08-25T01:25:44;21.70;99.90
6581;DHT22;3324;50.796;7.228;2022-08-25T01:28:13;21.70;99.90
6581;DHT22;3324;50.796;7.228;2022-08-25T01:30:39;21.50;99.90
6581;DHT22;3324;50.796;7.228;2022-08-25T01:33:06;21.50;99.90
6581;DHT22;3324;50.796;7.228;2022-08-25T01:35:32;21.50;99.90
6581;DHT22;3324;50.796;7.228;2022-08-25T01:38:00;21.50;99.90
6581;DHT22;3324;50.796;7.228;2022-08-25T01:40:26;21.50;99.90
6581;DHT22;3324;50.796;7.228;2022-08-25T01:45:46;21.40;99.90
6581;DHT22;3324;50.796;7.228;2022-08-25T01:48:13;21.30;99.90
6581;DHT22;3324;50.796;7.228;2022-08-25T01:50:40;21.20;99.90
6581;DHT22;3324;50.796;7.228;2022-08-25T01:53:10;21.10;99.90
6581;DHT22;3324;50.796;7.228;2022-08-25T01:55:37;21.10;99.90
6581;DHT22;3324;50.796;7.228;2022-08-25T01:58:31;21.20;99.90
6581;DHT22;3324;50.796;7.228;2022-08-25T02:00:59;21.20;99.90
6581;DHT22;3324;50.796;7.228;2022-08-25T02:03:26;21.10;99.90
6581;DHT22;3324;50.796;7.228;2022-08-25T02:05:53;21.10;99.90
6581;DHT22;3324;50.796;7.228;2022-08-25T02:08:19;21.10;99.90
6581;DHT22;3324;50.796;7.228;2022-08-25T02:10:47;21.10;99.90
6581;DHT22;3324;50.796;7.228;2022-08-25T02:13:14;21.10;99.90
6581;DHT22;3324;50.796;7.228;2022-08-25T02:15:45;21.10;99.90
6581;DHT22;3324;50.796;7.228;2022-08-25T02:18:12;21.10;99.90
6581;DHT22;3324;50.796;7.228;2022-08-25T02:20:38;21.00;99.90
6581;DHT22;3324;50.796;7.228;2022-08-25T02:23:04;21.00;99.90
6581;DHT22;3324;50.796;7.228;2022-08-25T02:25:31;21.00;99.90
6581;DHT22;3324;50.796;7.228;2022-08-25T02:27:57;20.90;99.90
6581;DHT22;3324;50.796;7.228;2022-08-25T02:30:23;20.90;99.90
6581;DHT22;3324;50.796;7.228;2022-08-25T02:32:49;20.80;99.90
6581;DHT22;3324;50.796;7.228;2022-08-25T02:35:15;20.90;99.90
6581;DHT22;3324;50.796;7.228;2022-08-25T02:37:41;20.80;99.90
6581;DHT22;3324;50.796;7.228;2022-08-25T02:40:07;20.80;99.90
6581;DHT22;3324;50.796;7.228;2022-08-25T02:42:33;20.80;99.90
6581;DHT22;3324;50.796;7.228;2022-08-25T02:44:59;20.80;99.90
6581;DHT22;3324;50.796;7.228;2022-08-25T02:47:24;20.80;99.90
6581;DHT22;3324;50.796;7.228;2022-08-25T02:49:50;20.70;99.90
6581;DHT22;3324;50.796;7.228;2022-08-25T02:52:16;20.70;99.90
6581;DHT22;3324;50.796;7.228;2022-08-25T02:54:42;20.70;99.90
6581;DHT22;3324;50.796;7.228;2022-08-25T02:57:07;20.70;99.90
6581;DHT22;3324;50.796;7.228;2022-08-25T02:59:36;20.60;99.90
6581;DHT22;3324;50.796;7.228;2022-08-25T03:02:02;20.50;99.90
6581;DHT22;3324;50.796;7.228;2022-08-25T03:04:28;20.50;99.90
6581;DHT22;3324;50.796;7.228;2022-08-25T03:06:55;20.40;99.90
6581;DHT22;3324;50.796;7.228;2022-08-25T03:09:20;20.40;99.90
6581;DHT22;3324;50.796;7.228;2022-08-25T03:11:47;20.40;99.90
6581;DHT22;3324;50.796;7.228;2022-08-25T03:14:12;20.30;99.90
6581;DHT22;3324;50.796;7.228;2022-08-25T03:16:38;20.30;99.90
6581;DHT22;3324;50.796;7.228;2022-08-25T03:19:04;20.20;99.90
6581;DHT22;3324;50.796;7.228;2022-08-25T03:21:30;20.20;99.90
6581;DHT22;3324;50.796;7.228;2022-08-25T03:23:58;20.20;99.90
6581;DHT22;3324;50.796;7.228;2022-08-25T03:26:24;20.20;99.90
6581;DHT22;3324;50.796;7.228;2022-08-25T03:29:08;20.20;99.90
6581;DHT22;3324;50.796;7.228;2022-08-25T03:31:35;20.10;99.90
6581;DHT22;3324;50.796;7.228;2022-08-25T03:34:01;20.10;99.90
6581;DHT22;3324;50.796;7.228;2022-08-25T03:36:27;20.10;99.90
6581;DHT22;3324;50.796;7.228;2022-08-25T03:38:53;20.10;99.90
6581;DHT22;3324;50.796;7.228;2022-08-25T03:41:25;20.10;99.90
6581;DHT22;3324;50.796;7.228;2022-08-25T03:43:53;20.10;99.90
6581;DHT22;3324;50.796;7.228;2022-08-25T03:46:28;20.10;99.90
6581;DHT22;3324;50.796;7.228;2022-08-25T03:48:54;20.10;99.90
6581;DHT22;3324;50.796;7.228;2022-08-25T03:51:26;20.00;99.90
6581;DHT22;3324;50.796;7.228;2022-08-25T03:53:52;19.90;99.90
6581;DHT22;3324;50.796;7.228;2022-08-25T03:56:18;19.80;99.90
6581;DHT22;3324;50.796;7.228;2022-08-25T03:58:44;19.80;99.90
6581;DHT22;3324;50.796;7.228;2022-08-25T04:01:11;19.80;99.90
6581;DHT22;3324;50.796;7.228;2022-08-25T04:03:36;19.80;99.90
6581;DHT22;3324;50.796;7.228;2022-08-25T04:06:04;19.80;99.90
6581;DHT22;3324;50.796;7.228;2022-08-25T04:08:30;19.70;99.90
6581;DHT22;3324;50.796;7.228;2022-08-25T04:10:56;19.60;99.90
6581;DHT22;3324;50.796;7.228;2022-08-25T04:13:21;19.60;99.90
6581;DHT22;3324;50.796;7.228;2022-08-25T04:15:48;19.60;99.90
6581;DHT22;3324;50.796;7.228;2022-08-25T04:18:14;19.50;99.90
6581;DHT22;3324;50.796;7.228;2022-08-25T04:20:40;19.40;99.90
6581;DHT22;3324;50.796;7.228;2022-08-25T04:23:08;19.40;99.90
6581;DHT22;3324;50.796;7.228;2022-08-25T04:25:33;19.40;99.90
6581;DHT22;3324;50.796;7.228;2022-08-25T04:27:59;19.40;99.90
6581;DHT22;3324;50.796;7.228;2022-08-25T04:30:25;19.40;99.90
6581;DHT22;3324;50.796;7.228;2022-08-25T04:32:50;19.20;99.90
6581;DHT22;3324;50.796;7.228;2022-08-25T04:35:16;19.30;99.90
6581;DHT22;3324;50.796;7.228;2022-08-25T04:37:42;19.30;99.90
6581;DHT22;3324;50.796;7.228;2022-08-25T04:40:08;19.20;99.90
6581;DHT22;3324;50.796;7.228;2022-08-25T04:42:34;19.20;99.90
6581;DHT22;3324;50.796;7.228;2022-08-25T04:45:00;19.20;99.90
6581;DHT22;3324;50.796;7.228;2022-08-25T04:47:27;19.20;99.90
6581;DHT22;3324;50.796;7.228;2022-08-25T04:49:53;19.20;99.90
6581;DHT22;3324;50.796;7.228;2022-08-25T04:52:18;19.20;99.90
6581;DHT22;3324;50.796;7.228;2022-08-25T04:54:46;19.20;99.90
6581;DHT22;3324;50.796;7.228;2022-08-25T04:57:12;19.20;99.90
6581;DHT22;3324;50.796;7.228;2022-08-25T04:59:37;19.20;99.90
6581;DHT22;3324;50.796;7.228;2022-08-25T05:02:04;19.20;99.90
6581;DHT22;3324;50.796;7.228;2022-08-25T05:04:33;19.20;99.90
6581;DHT22;3324;50.796;7.228;2022-08-25T05:07:00;19.30;99.90
6581;DHT22;3324;50.796;7.228;2022-08-25T05:09:26;19.30;99.90
6581;DHT22;3324;50.796;7.228;2022-08-25T05:11:52;19.30;99.90
6581;DHT22;3324;50.796;7.228;2022-08-25T05:14:19;19.30;99.90
6581;DHT22;3324;50.796;7.228;2022-08-25T05:16:47;19.30;99.90
6581;DHT22;3324;50.796;7.228;2022-08-25T05:19:13;19.30;99.90
6581;DHT22;3324;50.796;7.228;2022-08-25T05:21:38;19.40;99.90
6581;DHT22;3324;50.796;7.228;2022-08-25T05:24:05;19.40;99.90
6581;DHT22;3324;50.796;7.228;2022-08-25T05:26:32;19.50;99.90
6581;DHT22;3324;50.796;7.228;2022-08-25T05:28:59;19.60;99.90
6581;DHT22;3324;50.796;7.228;2022-08-25T05:31:26;19.70;99.90
6581;DHT22;3324;50.796;7.228;2022-08-25T05:33:53;19.80;99.90
6581;DHT22;3324;50.796;7.228;2022-08-25T05:36:19;19.80;99.90
6581;DHT22;3324;50.796;7.228;2022-08-25T05:38:46;19.90;99.90
6581;DHT22;3324;50.796;7.228;2022-08-25T05:41:15;20.00;99.90
6581;DHT22;3324;50.796;7.228;2022-08-25T05:43:43;20.00;99.90
6581;DHT22;3324;50.796;7.228;2022-08-25T05:46:09;20.10;99.90
6581;DHT22;3324;50.796;7.228;2022-08-25T05:48:35;20.20;99.90
6581;DHT22;3324;50.796;7.228;2022-08-25T05:51:03;20.20;99.90
6581;DHT22;3324;50.796;7.228;2022-08-25T05:53:29;20.30;99.90
6581;DHT22;3324;50.796;7.228;2022-08-25T05:55:57;20.40;99.90
6581;DHT22;3324;50.796;7.228;2022-08-25T05:58:25;20.50;99.90
6581;DHT22;3324;50.796;7.228;2022-08-25T06:00:53;20.60;99.90
6581;DHT22;3324;50.796;7.228;2022-08-25T06:03:19;20.70;99.90
6581;DHT22;3324;50.796;7.228;2022-08-25T06:05:45;20.80;99.90
6581;DHT22;3324;50.796;7.228;2022-08-25T06:08:11;20.90;99.90
6581;DHT22;3324;50.796;7.228;2022-08-25T06:10:37;21.00;99.90
6581;DHT22;3324;50.796;7.228;2022-08-25T06:13:03;21.10;99.90
6581;DHT22;3324;50.796;7.228;2022-08-25T06:15:30;21.20;99.90
6581;DHT22;3324;50.796;7.228;2022-08-25T06:17:55;21.30;99.90
6581;DHT22;3324;50.796;7.228;2022-08-25T06:20:25;21.40;99.90
6581;DHT22;3324;50.796;7.228;2022-08-25T06:22:53;21.50;99.90
6581;DHT22;3324;50.796;7.228;2022-08-25T06:25:20;21.60;99.90
6581;DHT22;3324;50.796;7.228;2022-08-25T06:27:47;21.70;99.90
6581;DHT22;3324;50.796;7.228;2022-08-25T06:30:15;21.80;99.90
6581;DHT22;3324;50.796;7.228;2022-08-25T06:32:42;21.90;99.90
6581;DHT22;3324;50.796;7.228;2022-08-25T06:35:11;21.90;99.90
6581;DHT22;3324;50.796;7.228;2022-08-25T06:37:37;22.10;99.90
6581;DHT22;3324;50.796;7.228;2022-08-25T06:40:05;22.20;99.90
6581;DHT22;3324;50.796;7.228;2022-08-25T06:42:31;22.30;99.90
6581;DHT22;3324;50.796;7.228;2022-08-25T06:44:57;22.40;99.90
6581;DHT22;3324;50.796;7.228;2022-08-25T06:47:22;22.50;99.90
6581;DHT22;3324;50.796;7.228;2022-08-25T06:49:48;22.60;99.90
6581;DHT22;3324;50.796;7.228;2022-08-25T06:52:14;22.70;99.90
6581;DHT22;3324;50.796;7.228;2022-08-25T06:54:40;22.80;99.90
6581;DHT22;3324;50.796;7.228;2022-08-25T06:57:07;22.90;99.90
6581;DHT22;3324;50.796;7.228;2022-08-25T06:59:34;23.10;99.90
6581;DHT22;3324;50.796;7.228;2022-08-25T07:02:00;23.20;99.90
6581;DHT22;3324;50.796;7.228;2022-08-25T07:04:26;23.30;99.90
6581;DHT22;3324;50.796;7.228;2022-08-25T07:06:52;23.40;99.90
6581;DHT22;3324;50.796;7.228;2022-08-25T07:09:17;23.60;99.90
6581;DHT22;3324;50.796;7.228;2022-08-25T07:11:44;23.70;99.90
6581;DHT22;3324;50.796;7.228;2022-08-25T07:14:11;23.70;99.90
6581;DHT22;3324;50.796;7.228;2022-08-25T07:16:39;23.80;99.90
6581;DHT22;3324;50.796;7.228;2022-08-25T07:19:06;23.90;99.90
6581;DHT22;3324;50.796;7.228;2022-08-25T07:21:33;24.00;99.90
6581;DHT22;3324;50.796;7.228;2022-08-25T07:24:00;24.10;99.90
6581;DHT22;3324;50.796;7.228;2022-08-25T07:26:30;24.20;99.90
6581;DHT22;3324;50.796;7.228;2022-08-25T07:28:56;24.30;99.90
6581;DHT22;3324;50.796;7.228;2022-08-25T07:31:23;24.40;99.90
6581;DHT22;3324;50.796;7.228;2022-08-25T07:33:49;24.60;99.90
6581;DHT22;3324;50.796;7.228;2022-08-25T07:36:33;24.70;99.90
6581;DHT22;3324;50.796;7.228;2022-08-25T07:38:59;24.80;99.90
6581;DHT22;3324;50.796;7.228;2022-08-25T07:41:29;24.90;99.90
6581;DHT22;3324;50.796;7.228;2022-08-25T07:43:56;25.00;99.90
6581;DHT22;3324;50.796;7.228;2022-08-25T07:46:21;25.20;99.90
6581;DHT22;3324;50.796;7.228;2022-08-25T07:48:47;25.20;99.90
6581;DHT22;3324;50.796;7.228;2022-08-25T07:51:13;25.30;99.90
6581;DHT22;3324;50.796;7.228;2022-08-25T07:53:40;25.50;99.90
6581;DHT22;3324;50.796;7.228;2022-08-25T07:56:14;25.60;99.90
6581;DHT22;3324;50.796;7.228;2022-08-25T07:58:42;25.80;99.90
6581;DHT22;3324;50.796;7.228;2022-08-25T08:01:17;25.90;99.90
6581;DHT22;3324;50.796;7.228;2022-08-25T08:03:44;26.00;99.90
6581;DHT22;3324;50.796;7.228;2022-08-25T08:06:11;26.20;99.90
6581;DHT22;3324;50.796;7.228;2022-08-25T08:08:38;26.30;99.90
6581;DHT22;3324;50.796;7.228;2022-08-25T08:11:04;26.20;99.90
6581;DHT22;3324;50.796;7.228;2022-08-25T08:13:30;26.40;99.90
6581;DHT22;3324;50.796;7.228;2022-08-25T08:15:56;26.50;99.90
6581;DHT22;3324;50.796;7.228;2022-08-25T08:18:22;26.60;99.90
6581;DHT22;3324;50.796;7.228;2022-08-25T08:20:48;26.70;99.90
6581;DHT22;3324;50.796;7.228;2022-08-25T08:23:15;26.90;99.90
6581;DHT22;3324;50.796;7.228;2022-08-25T08:25:41;27.00;99.90
6581;DHT22;3324;50.796;7.228;2022-08-25T08:28:07;27.20;99.90
6581;DHT22;3324;50.796;7.228;2022-08-25T08:30:33;27.20;99.90
6581;DHT22;3324;50.796;7.228;2022-08-25T08:33:00;27.30;99.90
6581;DHT22;3324;50.796;7.228;2022-08-25T08:35:26;27.40;99.90
6581;DHT22;3324;50.796;7.228;2022-08-25T08:37:52;27.50;99.90
6581;DHT22;3324;50.796;7.228;2022-08-25T08:40:19;27.60;99.90
6581;DHT22;3324;50.796;7.228;2022-08-25T08:43:04;27.80;99.90
6581;DHT22;3324;50.796;7.228;2022-08-25T08:48:21;28.10;99.90
6581;DHT22;3324;50.796;7.228;2022-08-25T08:53:51;28.30;99.90
6581;DHT22;3324;50.796;7.228;2022-08-25T08:56:25;28.40;99.90
6581;DHT22;3324;50.796;7.228;2022-08-25T08:58:55;28.50;99.90
6581;DHT22;3324;50.796;7.228;2022-08-25T09:01:34;28.60;99.90
6581;DHT22;3324;50.796;7.228;2022-08-25T09:04:19;28.70;99.90
6581;DHT22;3324;50.796;7.228;2022-08-25T09:06:48;28.80;99.90
6581;DHT22;3324;50.796;7.228;2022-08-25T09:09:26;28.90;99.90
6581;DHT22;3324;50.796;7.228;2022-08-25T09:15:05;29.00;99.30
6581;DHT22;3324;50.796;7.228;2022-08-25T09:20:14;29.30;98.90
6581;DHT22;3324;50.796;7.228;2022-08-25T09:23:06;29.40;98.20
6581;DHT22;3324;50.796;7.228;2022-08-25T09:26:12;29.40;97.80
6581;DHT22;3324;50.796;7.228;2022-08-25T09:31:26;29.60;96.70
6581;DHT22;3324;50.796;7.228;2022-08-25T09:33:59;29.60;96.90
6581;DHT22;3324;50.796;7.228;2022-08-25T09:36:25;29.90;96.90
6581;DHT22;3324;50.796;7.228;2022-08-25T09:38:51;30.00;95.90
6581;DHT22;3324;50.796;7.228;2022-08-25T09:44:27;30.20;95.50
6581;DHT22;3324;50.796;7.228;2022-08-25T09:47:04;30.40;94.50
6581;DHT22;3324;50.796;7.228;2022-08-25T09:49:35;30.40;93.80
6581;DHT22;3324;50.796;7.228;2022-08-25T09:54:45;30.50;93.80
6581;DHT22;3324;50.796;7.228;2022-08-25T09:57:33;30.60;93.90
6581;DHT22;3324;50.796;7.228;2022-08-25T10:02:38;30.80;93.20
6581;DHT22;3324;50.796;7.228;2022-08-25T10:10:57;30.90;91.60
6581;DHT22;3324;50.796;7.228;2022-08-25T10:13:50;31.00;91.50
6581;DHT22;3324;50.796;7.228;2022-08-25T10:16:22;31.00;90.80
6581;DHT22;3324;50.796;7.228;2022-08-25T10:19:05;31.10;90.70
6581;DHT22;3324;50.796;7.228;2022-08-25T10:21:32;30.90;90.60
6581;DHT22;3324;50.796;7.228;2022-08-25T10:23:58;31.10;89.80
6581;DHT22;3324;50.796;7.228;2022-08-25T10:29:38;31.10;90.10
6581;DHT22;3324;50.796;7.228;2022-08-25T10:34:50;31.00;88.60
6581;DHT22;3324;50.796;7.228;2022-08-25T10:42:38;31.40;86.70
6581;DHT22;3324;50.796;7.228;2022-08-25T10:56:26;31.70;81.80
6581;DHT22;3324;50.796;7.228;2022-08-25T11:04:45;31.90;81.80
6581;DHT22;3324;50.796;7.228;2022-08-25T11:07:24;31.90;82.20
6581;DHT22;3324;50.796;7.228;2022-08-25T11:09:56;32.10;82.00
6581;DHT22;3324;50.796;7.228;2022-08-25T11:12:31;32.20;81.10
6581;DHT22;3324;50.796;7.228;2022-08-25T11:15:24;32.10;79.90
6581;DHT22;3324;50.796;7.228;2022-08-25T11:17:55;32.10;79.30
6581;DHT22;3324;50.796;7.228;2022-08-25T11:20:36;32.30;80.00
6581;DHT22;3324;50.796;7.228;2022-08-25T11:23:08;32.40;78.50
6581;DHT22;3324;50.796;7.228;2022-08-25T11:25:49;32.60;75.40
6581;DHT22;3324;50.796;7.228;2022-08-25T11:31:13;32.80;75.90
6581;DHT22;3324;50.796;7.228;2022-08-25T11:33:39;32.80;74.20
6581;DHT22;3324;50.796;7.228;2022-08-25T11:36:29;33.00;72.90
6581;DHT22;3324;50.796;7.228;2022-08-25T11:44:59;32.40;70.50
6581;DHT22;3324;50.796;7.228;2022-08-25T11:53:40;32.60;70.00
6581;DHT22;3324;50.796;7.228;2022-08-25T11:56:12;32.60;65.90
6581;DHT22;3324;50.796;7.228;2022-08-25T11:58:55;32.60;62.10
6581;DHT22;3324;50.796;7.228;2022-08-25T12:10:08;33.40;66.50
6581;DHT22;3324;50.796;7.228;2022-08-25T12:26:39;33.70;62.40
6581;DHT22;3324;50.796;7.228;2022-08-25T12:29:10;33.60;62.50
6581;DHT22;3324;50.796;7.228;2022-08-25T12:36:34;33.50;62.30
6581;DHT22;3324;50.796;7.228;2022-08-25T12:39:20;33.60;62.10
6581;DHT22;3324;50.796;7.228;2022-08-25T12:47:53;32.90;61.80
6581;DHT22;3324;50.796;7.228;2022-08-25T12:50:38;33.00;61.90
6581;DHT22;3324;50.796;7.228;2022-08-25T12:53:17;32.90;60.70
6581;DHT22;3324;50.796;7.228;2022-08-25T12:55:50;33.00;61.10
6581;DHT22;3324;50.796;7.228;2022-08-25T12:58:16;33.10;61.40
6581;DHT22;3324;50.796;7.228;2022-08-25T13:06:26;33.60;58.50
6581;DHT22;3324;50.796;7.228;2022-08-25T13:14:40;33.80;58.20
6581;DHT22;3324;50.796;7.228;2022-08-25T13:17:06;33.90;58.00
6581;DHT22;3324;50.796;7.228;2022-08-25T13:19:33;33.90;58.20
6581;DHT22;3324;50.796;7.228;2022-08-25T13:22:02;34.00;58.60
6581;DHT22;3324;50.796;7.228;2022-08-25T13:24:34;33.90;58.10
6581;DHT22;3324;50.796;7.228;2022-08-25T13:27:03;34.00;58.00
6581;DHT22;3324;50.796;7.228;2022-08-25T13:29:35;33.80;57.40
6581;DHT22;3324;50.796;7.228;2022-08-25T13:32:04;33.70;58.50
6581;DHT22;3324;50.796;7.228;2022-08-25T13:34:35;33.70;57.10
6581;DHT22;3324;50.796;7.228;2022-08-25T13:37:10;33.60;57.10
6581;DHT22;3324;50.796;7.228;2022-08-25T13:42:42;33.70;56.40
6581;DHT22;3324;50.796;7.228;2022-08-25T13:45:14;33.70;54.80
6581;DHT22;3324;50.796;7.228;2022-08-25T13:47:42;33.60;55.00
6581;DHT22;3324;50.796;7.228;2022-08-25T13:52:39;33.60;55.30
6581;DHT22;3324;50.796;7.228;2022-08-25T13:55:05;33.60;55.30
6581;DHT22;3324;50.796;7.228;2022-08-25T13:57:32;33.70;56.50
6581;DHT22;3324;50.796;7.228;2022-08-25T14:00:09;33.90;53.70
6581;DHT22;3324;50.796;7.228;2022-08-25T14:02:46;33.90;52.70
6581;DHT22;3324;50.796;7.228;2022-08-25T14:05:14;33.80;52.70
6581;DHT22;3324;50.796;7.228;2022-08-25T14:07:55;33.80;52.60
6581;DHT22;3324;50.796;7.228;2022-08-25T14:13:13;33.70;53.30
6581;DHT22;3324;50.796;7.228;2022-08-25T14:15:41;33.80;53.40
6581;DHT22;3324;50.796;7.228;2022-08-25T14:18:19;33.80;54.10
6581;DHT22;3324;50.796;7.228;2022-08-25T14:20:49;33.80;53.20
6581;DHT22;3324;50.796;7.228;2022-08-25T14:23:28;33.70;53.70
6581;DHT22;3324;50.796;7.228;2022-08-25T14:25:56;33.70;53.70
6581;DHT22;3324;50.796;7.228;2022-08-25T14:28:25;33.70;53.70
6581;DHT22;3324;50.796;7.228;2022-08-25T14:30:52;33.70;53.30
6581;DHT22;3324;50.796;7.228;2022-08-25T14:33:21;33.60;52.90
6581;DHT22;3324;50.796;7.228;2022-08-25T14:35:50;33.70;53.80
6581;DHT22;3324;50.796;7.228;2022-08-25T14:38:17;33.60;52.20
6581;DHT22;3324;50.796;7.228;2022-08-25T14:40:44;33.70;52.40
6581;DHT22;3324;50.796;7.228;2022-08-25T14:43:09;33.60;52.00
6581;DHT22;3324;50.796;7.228;2022-08-25T14:45:37;33.50;52.60
6581;DHT22;3324;50.796;7.228;2022-08-25T14:48:07;33.60;53.30
6581;DHT22;3324;50.796;7.228;2022-08-25T14:50:33;33.60;51.80
6581;DHT22;3324;50.796;7.228;2022-08-25T14:53:00;33.50;50.60
6581;DHT22;3324;50.796;7.228;2022-08-25T14:55:26;33.40;50.70
6581;DHT22;3324;50.796;7.228;2022-08-25T14:57:52;33.40;51.50
6581;DHT22;3324;50.796;7.228;2022-08-25T15:00:17;33.30;50.30
6581;DHT22;3324;50.796;7.228;2022-08-25T15:02:46;33.30;50.30
6581;DHT22;3324;50.796;7.228;2022-08-25T15:05:15;33.20;50.30
6581;DHT22;3324;50.796;7.228;2022-08-25T15:07:41;33.10;50.00
6581;DHT22;3324;50.796;7.228;2022-08-25T15:10:27;33.10;50.60
6581;DHT22;3324;50.796;7.228;2022-08-25T15:12:52;33.10;50.70
6581;DHT22;3324;50.796;7.228;2022-08-25T15:15:18;33.20;52.00
6581;DHT22;3324;50.796;7.228;2022-08-25T15:17:45;33.10;52.60
6581;DHT22;3324;50.796;7.228;2022-08-25T15:20:12;32.90;52.80
6581;DHT22;3324;50.796;7.228;2022-08-25T15:22:38;32.80;52.80
6581;DHT22;3324;50.796;7.228;2022-08-25T15:25:04;32.70;53.10
6581;DHT22;3324;50.796;7.228;2022-08-25T15:27:30;32.80;52.60
6581;DHT22;3324;50.796;7.228;2022-08-25T15:29:56;32.90;51.00
6581;DHT22;3324;50.796;7.228;2022-08-25T15:32:22;32.80;51.60
6581;DHT22;3324;50.796;7.228;2022-08-25T15:34:49;32.90;50.50
6581;DHT22;3324;50.796;7.228;2022-08-25T15:37:16;32.80;51.40
6581;DHT22;3324;50.796;7.228;2022-08-25T15:39:43;32.80;50.90
6581;DHT22;3324;50.796;7.228;2022-08-25T15:42:10;32.90;50.70
6581;DHT22;3324;50.796;7.228;2022-08-25T15:44:40;32.80;50.50
6581;DHT22;3324;50.796;7.228;2022-08-25T15:47:06;32.70;52.10
6581;DHT22;3324;50.796;7.228;2022-08-25T15:49:32;32.50;52.60
6581;DHT22;3324;50.796;7.228;2022-08-25T15:51:58;32.50;52.00
6581;DHT22;3324;50.796;7.228;2022-08-25T15:54:25;32.30;52.80
6581;DHT22;3324;50.796;7.228;2022-08-25T15:56:51;32.20;53.10
6581;DHT22;3324;50.796;7.228;2022-08-25T15:59:16;32.00;53.40
6581;DHT22;3324;50.796;7.228;2022-08-25T16:01:42;31.90;54.10
6581;DHT22;3324;50.796;7.228;2022-08-25T16:04:09;31.70;54.60
6581;DHT22;3324;50.796;7.228;2022-08-25T16:06:35;31.70;55.00
6581;DHT22;3324;50.796;7.228;2022-08-25T16:09:01;31.60;55.10
6581;DHT22;3324;50.796;7.228;2022-08-25T16:11:28;31.60;56.00
6581;DHT22;3324;50.796;7.228;2022-08-25T16:13:55;31.60;56.90
6581;DHT22;3324;50.796;7.228;2022-08-25T16:16:24;31.50;56.90
6581;DHT22;3324;50.796;7.228;2022-08-25T16:18:51;31.50;58.00
6581;DHT22;3324;50.796;7.228;2022-08-25T16:21:19;31.40;58.30
6581;DHT22;3324;50.796;7.228;2022-08-25T16:23:47;31.40;58.60
6581;DHT22;3324;50.796;7.228;2022-08-25T16:26:14;31.20;58.70
6581;DHT22;3324;50.796;7.228;2022-08-25T16:28:41;31.30;58.50
6581;DHT22;3324;50.796;7.228;2022-08-25T16:31:10;31.20;58.90
6581;DHT22;3324;50.796;7.228;2022-08-25T16:33:36;31.10;59.70
6581;DHT22;3324;50.796;7.228;2022-08-25T16:36:07;31.00;59.30
6581;DHT22;3324;50.796;7.228;2022-08-25T16:38:34;31.00;59.60
6581;DHT22;3324;50.796;7.228;2022-08-25T16:41:04;30.80;58.80
6581;DHT22;3324;50.796;7.228;2022-08-25T16:43:30;30.90;58.30
6581;DHT22;3324;50.796;7.228;2022-08-25T16:45:57;30.90;57.80
6581;DHT22;3324;50.796;7.228;2022-08-25T16:48:23;30.90;58.20
6581;DHT22;3324;50.796;7.228;2022-08-25T16:50:48;30.90;58.10
6581;DHT22;3324;50.796;7.228;2022-08-25T16:53:14;31.00;58.30
6581;DHT22;3324;50.796;7.228;2022-08-25T16:56:03;30.90;58.80
6581;DHT22;3324;50.796;7.228;2022-08-25T16:58:29;30.90;59.20
6581;DHT22;3324;50.796;7.228;2022-08-25T17:00:55;30.80;59.70
6581;DHT22;3324;50.796;7.228;2022-08-25T17:03:27;30.70;59.70
6581;DHT22;3324;50.796;7.228;2022-08-25T17:05:52;30.70;59.50
6581;DHT22;3324;50.796;7.228;2022-08-25T17:08:22;30.70;59.70
6581;DHT22;3324;50.796;7.228;2022-08-25T17:11:13;30.70;59.80
6581;DHT22;3324;50.796;7.228;2022-08-25T17:13:43;30.60;59.80
6581;DHT22;3324;50.796;7.228;2022-08-25T17:16:09;30.60;59.80
6581;DHT22;3324;50.796;7.228;2022-08-25T17:18:35;30.50;60.00
6581;DHT22;3324;50.796;7.228;2022-08-25T17:21:10;30.50;59.50
6581;DHT22;3324;50.796;7.228;2022-08-25T17:23:40;30.50;59.70
6581;DHT22;3324;50.796;7.228;2022-08-25T17:26:09;30.40;59.90
6581;DHT22;3324;50.796;7.228;2022-08-25T17:28:36;30.40;60.40
6581;DHT22;3324;50.796;7.228;2022-08-25T17:31:02;30.40;60.70
6581;DHT22;3324;50.796;7.228;2022-08-25T17:33:27;30.40;61.10
6581;DHT22;3324;50.796;7.228;2022-08-25T17:35:55;30.30;61.00
6581;DHT22;3324;50.796;7.228;2022-08-25T17:38:22;30.30;60.80
6581;DHT22;3324;50.796;7.228;2022-08-25T17:40:53;30.20;60.80
6581;DHT22;3324;50.796;7.228;2022-08-25T17:43:20;30.20;61.10
6581;DHT22;3324;50.796;7.228;2022-08-25T17:45:47;30.10;61.40
6581;DHT22;3324;50.796;7.228;2022-08-25T17:48:13;30.00;61.80
6581;DHT22;3324;50.796;7.228;2022-08-25T17:50:39;30.00;62.30
6581;DHT22;3324;50.796;7.228;2022-08-25T17:53:09;29.90;62.70
6581;DHT22;3324;50.796;7.228;2022-08-25T17:55:37;29.90;63.00
6581;DHT22;3324;50.796;7.228;2022-08-25T17:58:04;29.80;63.30
6581;DHT22;3324;50.796;7.228;2022-08-25T18:00:30;29.70;63.40
6581;DHT22;3324;50.796;7.228;2022-08-25T18:02:57;29.70;63.70
6581;DHT22;3324;50.796;7.228;2022-08-25T18:05:24;29.60;64.00
6581;DHT22;3324;50.796;7.228;2022-08-25T18:07:50;29.60;64.70
6581;DHT22;3324;50.796;7.228;2022-08-25T18:10:16;29.40;65.40
6581;DHT22;3324;50.796;7.228;2022-08-25T18:12:42;29.40;65.90
6581;DHT22;3324;50.796;7.228;2022-08-25T18:15:09;29.40;66.00
6581;DHT22;3324;50.796;7.228;2022-08-25T18:17:36;29.30;66.20
6581;DHT22;3324;50.796;7.228;2022-08-25T18:20:04;29.30;66.70